Time;durP1;ratioP1;P1;durP2;ratioP2;P2;SDS_P1;SDS_P2;PMS_P1;PMS_P2;Temp;Humidity;BMP_temperature;BMP_pressure;BME280_temperature;BME280_humidity;BME280_pressure;Samples;Min_cycle;Max_cycle;Signal;HPM_P1;HPM_P2
2022/08/27 05:57:21;;;;;;;23.03;17.87;;;18.40;99.90;;;;;;1159297;23;20887;-93
2022/08/27 06:02:35;;;;;;;21.90;16.73;;;18.40;99.90;;;;;;5001729;28;20467;-95
2022/08/27 06:05:02;;;;;;;25.10;19.13;;;18.50;99.90;;;;;;5001156;28;20506;-95
2022/08/27 06:07:32;;;;;;;24.50;17.67;;;18.50;99.90;;;;;;5000844;28;20527;-95
2022/08/27 06:09:59;;;;;;;22.33;18.30;;;18.50;99.90;;;;;;4999844;28;20454;-96
2022/08/27 06:12:29;;;;;;;21.07;17.10;;;18.50;99.90;;;;;;4999741;28;20486;-95
2022/08/27 06:14:56;;;;;;;20.33;18.10;;;18.60;99.90;;;;;;5000826;28;20447;-94
2022/08/27 06:17:23;;;;;;;24.87;17.30;;;18.60;99.90;;;;;;4997477;28;20573;-95
2022/08/27 06:22:53;;;;;;;25.03;17.70;;;18.60;99.90;;;;;;4993093;28;20539;-96
2022/08/27 06:26:16;;;;;;;27.23;19.23;;;18.60;99.90;;;;;;4998468;28;20535;-94
2022/08/27 07:39:12;;;;;;;19.83;14.50;;;19.00;99.90;;;;;;4094198;26;20470;-90
2022/08/27 08:08:40;;;;;;;20.20;16.40;;;19.10;99.90;;;;;;5074942;23;20529;-96
2022/08/27 08:13:56;;;;;;;21.93;15.53;;;19.10;99.90;;;;;;4990884;28;20476;-92
2022/08/27 08:16:28;;;;;;;20.10;15.20;;;19.10;99.90;;;;;;4996831;28;20476;-92
2022/08/27 08:18:55;;;;;;;20.87;16.07;;;19.10;99.90;;;;;;4993521;28;20466;-91
2022/08/27 08:21:22;;;;;;;18.87;14.40;;;19.10;99.90;;;;;;4989682;28;21040;-92
2022/08/27 08:23:51;;;;;;;24.47;17.60;;;19.10;99.90;;;;;;4989175;28;20474;-91
2022/08/27 08:29:03;;;;;;;22.83;16.87;;;19.10;99.90;;;;;;4989259;28;20460;-91
2022/08/27 08:31:48;;;;;;;25.83;17.10;;;19.10;99.90;;;;;;4986182;28;20462;-91
2022/08/27 08:34:27;;;;;;;19.73;15.20;;;19.10;99.90;;;;;;4988638;28;20460;-92
2022/08/27 08:37:14;;;;;;;19.90;15.43;;;19.10;99.90;;;;;;4988316;28;20511;-91
2022/08/27 08:39:59;;;;;;;23.20;16.50;;;19.20;99.90;;;;;;4992732;28;20487;-91
2022/08/27 08:42:55;;;;;;;17.80;15.07;;;19.30;99.90;;;;;;4991220;28;20468;-90
2022/08/27 08:48:44;;;;;;;21.03;16.47;;;19.40;99.90;;;;;;4970147;29;20493;-91
2022/08/27 09:57:48;;;;;;;14.40;11.90;;;19.50;99.90;;;;;;4957771;28;20522;-95
2022/08/27 10:00:34;;;;;;;15.23;12.10;;;19.60;99.90;;;;;;4959457;28;20536;-94
2022/08/27 10:03:21;;;;;;;13.33;11.93;;;19.60;99.90;;;;;;4958417;28;20478;-94
2022/08/27 10:22:11;;;;;;;7.50;6.33;;;19.90;99.90;;;;;;4933164;29;20498;-92
2022/08/27 10:24:58;;;;;;;6.20;5.60;;;20.00;99.90;;;;;;4938271;29;20550;-93
2022/08/27 11:42:48;;;;;;;10.43;7.63;;;20.10;99.90;;;;;;4950448;29;20459;-92
2022/08/27 11:58:25;;;;;;;11.60;8.80;;;20.00;99.90;;;;;;5919058;23;20411;-93
2022/08/27 12:00:52;;;;;;;11.07;9.57;;;20.00;99.90;;;;;;5030270;28;20469;-95
2022/08/27 12:06:19;;;;;;;10.40;9.27;;;20.00;99.90;;;;;;5005468;28;20459;-93
2022/08/27 21:31:04;;;;;;;15.40;11.70;;;17.80;99.90;;;;;;4630521;23;20520;-91
2022/08/27 21:33:32;;;;;;;14.97;13.37;;;17.80;99.90;;;;;;5004087;28;20532;-91
2022/08/27 21:35:59;;;;;;;15.00;12.23;;;17.80;99.90;;;;;;5012313;28;20560;-93
2022/08/27 21:38:27;;;;;;;17.17;13.13;;;17.80;99.90;;;;;;5015281;28;21003;-93
2022/08/27 21:40:56;;;;;;;14.77;12.60;;;17.70;99.90;;;;;;5002253;28;20482;-94
2022/08/27 21:43:28;;;;;;;14.20;11.93;;;17.70;99.90;;;;;;5003019;28;20462;-93
2022/08/27 21:45:59;;;;;;;15.33;11.90;;;17.70;99.90;;;;;;5004470;28;20484;-93
2022/08/27 21:48:27;;;;;;;16.00;12.73;;;17.70;99.90;;;;;;5007586;28;20474;-94
2022/08/27 21:50:55;;;;;;;14.23;12.20;;;17.70;99.90;;;;;;5008790;28;20466;-94
2022/08/27 21:53:22;;;;;;;18.40;12.07;;;17.70;99.90;;;;;;5009175;28;20470;-94
2022/08/27 21:55:52;;;;;;;15.63;12.40;;;17.70;99.90;;;;;;5005127;28;20479;-93
2022/08/27 21:58:19;;;;;;;14.93;12.70;;;17.60;99.90;;;;;;5005577;28;20469;-93
2022/08/27 22:00:49;;;;;;;14.43;12.70;;;17.60;99.90;;;;;;4999383;28;20478;-93
2022/08/27 22:03:17;;;;;;;14.87;11.90;;;17.60;99.90;;;;;;5002693;28;20470;-93
2022/08/27 22:05:46;;;;;;;15.73;13.33;;;17.60;99.90;;;;;;5003227;28;21061;-93
2022/08/27 22:08:15;;;;;;;17.67;14.43;;;17.60;99.90;;;;;;5001911;28;20470;-93
2022/08/27 22:10:43;;;;;;;13.67;12.10;;;17.60;99.90;;;;;;5001585;28;20466;-93
2022/08/27 22:13:11;;;;;;;15.83;12.27;;;17.60;99.90;;;;;;4997440;28;20482;-92
2022/08/27 22:15:39;;;;;;;14.80;12.90;;;17.50;99.90;;;;;;5007325;28;20928;-93
2022/08/27 22:18:06;;;;;;;14.83;12.63;;;17.50;99.90;;;;;;5020852;28;20500;-93
2022/08/27 22:20:33;;;;;;;15.90;13.10;;;17.50;99.90;;;;;;5013820;28;20486;-92
2022/08/27 22:23:03;;;;;;;16.47;11.97;;;17.50;99.90;;;;;;5013180;28;20462;-91
2022/08/27 22:25:30;;;;;;;15.00;12.43;;;17.50;99.90;;;;;;5006328;28;20478;-91
2022/08/27 22:27:57;;;;;;;13.70;11.20;;;17.50;99.90;;;;;;5017465;28;20505;-93
2022/08/27 22:30:24;;;;;;;15.60;12.13;;;17.50;99.90;;;;;;5015766;28;20466;-92
2022/08/27 22:32:50;;;;;;;15.63;12.30;;;17.50;99.90;;;;;;4998716;28;20470;-92
2022/08/27 22:35:18;;;;;;;15.13;12.50;;;17.50;99.90;;;;;;5001955;28;20485;-92
2022/08/27 22:37:45;;;;;;;13.33;11.30;;;17.40;99.90;;;;;;5012486;28;20986;-92
2022/08/27 22:40:16;;;;;;;14.90;12.57;;;17.40;99.90;;;;;;5016226;28;20461;-92
2022/08/27 22:42:43;;;;;;;16.30;12.73;;;17.40;99.90;;;;;;5016857;28;20454;-92
2022/08/27 22:45:10;;;;;;;15.60;12.23;;;17.40;99.90;;;;;;5003808;28;20474;-92
2022/08/27 22:47:37;;;;;;;13.33;11.70;;;17.30;99.90;;;;;;4997558;28;20467;-92
2022/08/27 22:50:06;;;;;;;14.27;12.63;;;17.40;99.90;;;;;;5000380;28;20844;-93
2022/08/27 22:52:32;;;;;;;11.53;10.33;;;17.40;99.90;;;;;;5002767;28;20542;-93
2022/08/27 22:54:59;;;;;;;12.40;11.03;;;17.30;99.90;;;;;;5004341;28;20482;-93
2022/08/27 22:57:29;;;;;;;13.60;11.10;;;17.30;99.90;;;;;;5014339;28;20462;-95
2022/08/27 22:59:57;;;;;;;13.50;10.73;;;17.30;99.90;;;;;;5013938;28;20466;-94
2022/08/27 23:02:24;;;;;;;13.77;11.10;;;17.30;99.90;;;;;;5015893;28;20482;-94
2022/08/27 23:04:51;;;;;;;13.77;12.30;;;17.20;99.90;;;;;;5012756;28;20550;-93
2022/08/27 23:07:18;;;;;;;14.90;12.83;;;17.20;99.90;;;;;;5013206;28;20467;-93
2022/08/27 23:09:44;;;;;;;13.40;11.60;;;17.20;99.90;;;;;;5019712;28;20451;-94
2022/08/27 23:12:11;;;;;;;12.60;10.90;;;17.20;99.90;;;;;;5020016;28;20447;-93
2022/08/27 23:14:39;;;;;;;13.23;11.87;;;17.20;99.90;;;;;;5010694;28;20463;-92
2022/08/27 23:17:06;;;;;;;12.60;11.27;;;17.20;99.90;;;;;;5005694;28;20467;-92
2022/08/27 23:19:32;;;;;;;13.47;10.60;;;17.20;99.90;;;;;;5009735;28;20473;-93
2022/08/27 23:21:59;;;;;;;13.37;11.00;;;17.20;99.90;;;;;;5013917;28;20493;-94
2022/08/27 23:24:26;;;;;;;12.20;10.90;;;17.20;99.90;;;;;;5018498;28;20439;-93
2022/08/27 23:30:00;;;;;;;14.10;12.03;;;17.10;99.90;;;;;;4960700;28;20440;-93
2022/08/27 23:32:28;;;;;;;14.03;10.80;;;17.10;99.90;;;;;;4960607;29;20546;-93
2022/08/27 23:34:55;;;;;;;12.67;10.63;;;17.10;99.90;;;;;;4989718;28;20482;-92
2022/08/27 23:37:22;;;;;;;15.90;12.77;;;17.10;99.90;;;;;;5019170;28;20447;-92
2022/08/27 23:39:49;;;;;;;15.87;12.60;;;17.10;99.90;;;;;;5005715;28;20455;-92
2022/08/27 23:42:17;;;;;;;13.10;10.80;;;17.10;99.90;;;;;;5003226;28;20474;-92
2022/08/27 23:44:44;;;;;;;12.90;10.40;;;17.10;99.90;;;;;;5002374;28;20479;-93
2022/08/27 23:47:12;;;;;;;13.83;11.43;;;17.10;99.90;;;;;;5008547;28;20462;-92
2022/08/27 23:49:39;;;;;;;14.30;10.77;;;17.10;99.90;;;;;;5005942;28;20467;-91
2022/08/27 23:52:06;;;;;;;13.00;10.70;;;17.00;99.90;;;;;;5009216;28;20451;-91
2022/08/27 23:54:33;;;;;;;13.60;11.50;;;17.00;99.90;;;;;;5008964;28;20478;-92
2022/08/27 23:57:00;;;;;;;11.73;9.83;;;17.00;99.90;;;;;;5013526;28;20459;-91
2022/08/27 23:59:27;;;;;;;14.63;11.70;;;17.00;99.90;;;;;;5018318;28;20730;-92
